createdAt,value
2019-03-10T00:02:14.033Z,100424.85
2019-03-10T00:04:44.865Z,100410.53
2019-03-10T00:07:15.639Z,100421.50
2019-03-10T00:09:46.133Z,100413.37
2019-03-10T00:12:16.989Z,100409.60
2019-03-10T00:14:47.637Z,100413.16
2019-03-10T00:17:18.667Z,100406.60
2019-03-10T00:19:49.657Z,100399.09
2019-03-10T00:22:22.041Z,100408.50
2019-03-10T00:24:52.797Z,100410.16
2019-03-10T00:27:23.548Z,100403.59
2019-03-10T00:29:54.186Z,100404.69
2019-03-10T00:32:27.645Z,100411.51
2019-03-10T00:34:59.115Z,100407.10
2019-03-10T00:37:29.763Z,100405.20
2019-03-10T00:40:55.846Z,100404.09
2019-03-10T00:43:41.147Z,100411.60
2019-03-10T00:46:47.997Z,100422.48
2019-03-10T00:50:16.857Z,100421.42
2019-03-10T00:53:01.976Z,100410.53
2019-03-10T00:55:32.854Z,100384.01
2019-03-10T00:58:03.820Z,100392.23
2019-03-10T01:00:35.938Z,100391.63
2019-03-10T01:03:08.264Z,100404.39
2019-03-10T01:05:39.371Z,100400.70
2019-03-10T01:08:10.275Z,100402.99
2019-03-10T01:10:41.267Z,100388.75
2019-03-10T01:13:11.993Z,100394.98
2019-03-10T01:15:43.184Z,100396.76
2019-03-10T01:18:15.323Z,100399.60
2019-03-10T01:20:47.139Z,100394.01
2019-03-10T01:23:19.262Z,100390.45
2019-03-10T01:25:49.897Z,100384.27
2019-03-10T01:28:21.132Z,100377.70
2019-03-10T01:31:03.302Z,100375.41
2019-03-10T01:34:12.044Z,100376.01
2019-03-10T01:36:42.786Z,100382.11
2019-03-10T01:39:13.359Z,100387.28
2019-03-10T01:41:44.072Z,100378.31
2019-03-10T01:44:16.881Z,100376.91
2019-03-10T01:46:47.393Z,100378.81
2019-03-10T01:49:18.272Z,100383.47
2019-03-10T01:51:49.052Z,100384.86
2019-03-10T01:54:20.123Z,100384.27
2019-03-10T01:56:52.093Z,100387.58
2019-03-10T01:59:25.199Z,100386.00
2019-03-10T02:01:56.183Z,100397.44
2019-03-10T02:04:28.125Z,100392.89
2019-03-10T02:06:58.900Z,100381.54
2019-03-10T02:09:31.299Z,100397.42
2019-03-10T02:12:02.012Z,100390.73
2019-03-10T02:14:32.842Z,100393.89
2019-03-10T02:17:03.630Z,100395.84
2019-03-10T02:19:34.834Z,100393.22
2019-03-10T02:22:05.711Z,100392.06
2019-03-10T02:24:36.356Z,100389.11
2019-03-10T02:27:07.302Z,100393.17
2019-03-10T02:29:41.077Z,100395.70
2019-03-10T02:32:13.672Z,100391.41
2019-03-10T02:34:44.329Z,100405.84
2019-03-10T02:37:15.111Z,100409.78
2019-03-10T02:39:46.169Z,100406.80
2019-03-10T02:42:16.844Z,100408.45
2019-03-10T02:44:47.665Z,100408.09
2019-03-10T02:47:18.222Z,100410.45
2019-03-10T02:49:48.812Z,100403.30
2019-03-10T02:52:19.569Z,100403.17
2019-03-10T02:54:50.535Z,100406.23
2019-03-10T02:57:21.491Z,100396.34
2019-03-10T02:59:53.478Z,100400.51
2019-03-10T03:02:29.046Z,100399.37
2019-03-10T03:05:00.042Z,100395.23
2019-03-10T03:07:31.287Z,100395.55
2019-03-10T03:10:02.440Z,100394.58
2019-03-10T03:12:33.317Z,100389.03
2019-03-10T03:15:04.167Z,100390.53
2019-03-10T03:17:34.795Z,100391.40
2019-03-10T03:20:06.592Z,100394.69
2019-03-10T03:22:37.262Z,100395.84
2019-03-10T03:25:09.448Z,100396.86
2019-03-10T03:27:41.134Z,100394.74
2019-03-10T03:30:13.644Z,100395.42
2019-03-10T03:32:47.487Z,100394.39
2019-03-10T03:35:56.029Z,100395.99
2019-03-10T03:38:30.296Z,100392.87
2019-03-10T03:41:03.113Z,100395.53
2019-03-10T03:43:34.119Z,100390.31
2019-03-10T03:46:06.079Z,100392.09
2019-03-10T03:48:38.721Z,100395.97
2019-03-10T03:51:09.468Z,100397.65
2019-03-10T03:53:40.020Z,100399.94
2019-03-10T03:56:12.592Z,100400.92
2019-03-10T03:58:45.048Z,100396.03
2019-03-10T04:01:20.266Z,100397.56
2019-03-10T04:03:54.128Z,100393.27
2019-03-10T04:06:24.808Z,100394.21
2019-03-10T04:08:56.424Z,100391.91
2019-03-10T04:11:27.100Z,100384.06
2019-03-10T04:13:57.892Z,100381.51
2019-03-10T04:16:28.630Z,100381.21
2019-03-10T04:19:00.022Z,100374.17
2019-03-10T04:21:31.358Z,100371.90
2019-03-10T04:24:03.261Z,100373.06
2019-03-10T04:26:34.367Z,100371.52
2019-03-10T04:29:06.339Z,100384.80
2019-03-10T04:31:37.281Z,100383.00
2019-03-10T04:34:08.157Z,100379.07
2019-03-10T04:36:38.956Z,100378.72
2019-03-10T04:39:09.630Z,100381.80
2019-03-10T04:41:40.474Z,100391.08
2019-03-10T04:44:11.415Z,100388.69
2019-03-10T04:46:42.209Z,100388.69
2019-03-10T04:49:13.267Z,100387.50
2019-03-10T04:51:43.973Z,100388.34
2019-03-10T04:54:16.365Z,100385.06
2019-03-10T04:56:56.334Z,100386.32
2019-03-10T04:59:27.474Z,100378.20
2019-03-10T05:01:58.048Z,100379.16
2019-03-10T05:04:28.831Z,100381.89
2019-03-10T05:07:02.270Z,100373.13
2019-03-10T05:09:33.198Z,100370.05
2019-03-10T05:12:04.398Z,100378.80
2019-03-10T05:14:36.478Z,100381.48
2019-03-10T05:17:07.259Z,100382.98
2019-03-10T05:19:37.952Z,100379.61
2019-03-10T05:22:08.625Z,100375.34
2019-03-10T05:24:41.066Z,100374.62
2019-03-10T05:27:11.672Z,100374.07
2019-03-10T05:29:42.696Z,100376.34
2019-03-10T05:32:14.270Z,100383.88
2019-03-10T05:34:46.422Z,100383.55
2019-03-10T05:37:17.233Z,100387.60
2019-03-10T05:39:48.651Z,100391.03
2019-03-10T05:42:19.323Z,100390.45
2019-03-10T05:44:49.814Z,100382.75
2019-03-10T05:47:25.625Z,100388.16
2019-03-10T05:49:56.370Z,100395.48
2019-03-10T05:52:27.065Z,100398.02
2019-03-10T05:54:58.836Z,100401.17
2019-03-10T05:57:29.672Z,100400.72
2019-03-10T06:00:00.635Z,100400.31
2019-03-10T06:02:31.437Z,100405.47
2019-03-10T06:05:02.217Z,100400.97
2019-03-10T06:07:34.335Z,100400.80
2019-03-10T06:10:05.627Z,100398.23
2019-03-10T06:12:36.350Z,100402.81
2019-03-10T06:15:07.665Z,100404.91
2019-03-10T06:17:39.240Z,100406.08
2019-03-10T06:20:09.999Z,100403.45
2019-03-10T06:22:42.050Z,100392.84
2019-03-10T06:25:14.076Z,100403.60
2019-03-10T06:27:46.482Z,100410.87
2019-03-10T06:30:17.351Z,100417.91
2019-03-10T06:32:48.192Z,100413.84
2019-03-10T06:35:18.856Z,100419.30
2019-03-10T06:37:49.534Z,100403.13
2019-03-10T06:40:31.401Z,100404.16
2019-03-10T06:42:52.920Z,100404.47
2019-03-10T06:45:23.457Z,100414.62
2019-03-10T06:47:54.237Z,100419.03
2019-03-10T06:50:24.823Z,100428.57
2019-03-10T06:52:55.564Z,100434.86
2019-03-10T06:55:26.654Z,100433.54
2019-03-10T06:57:58.412Z,100423.30
2019-03-10T07:00:29.428Z,100419.75
2019-03-10T07:03:00.106Z,100416.45
2019-03-10T07:05:30.989Z,100427.08
2019-03-10T07:08:01.639Z,100416.37
2019-03-10T07:10:32.462Z,100423.19
2019-03-10T07:13:03.100Z,100428.09
2019-03-10T07:15:37.946Z,100411.70
2019-03-10T07:18:09.824Z,100408.52
2019-03-10T07:20:40.407Z,100420.39
2019-03-10T07:23:14.354Z,100418.19
2019-03-10T07:25:44.987Z,100412.52
2019-03-10T07:28:31.618Z,100408.82
2019-03-10T07:31:20.138Z,100403.06
2019-03-10T07:33:58.725Z,100395.55
2019-03-10T07:36:38.987Z,100388.11
2019-03-10T07:39:37.097Z,100383.52
2019-03-10T07:42:21.236Z,100384.66
2019-03-10T07:45:00.989Z,100382.31
2019-03-10T07:47:49.318Z,100395.13
2019-03-10T07:50:29.592Z,100371.89
2019-03-10T07:53:19.285Z,100373.45
2019-03-10T07:56:08.020Z,100375.44
2019-03-10T07:59:01.154Z,100387.05
2019-03-10T08:01:51.306Z,100388.80
2019-03-10T08:04:46.405Z,100400.81
2019-03-10T08:07:41.281Z,100392.00
2019-03-10T08:10:30.815Z,100398.28
2019-03-10T08:13:19.418Z,100406.77
2019-03-10T08:16:11.865Z,100408.19
2019-03-10T08:18:53.341Z,100412.99
2019-03-10T08:21:46.210Z,100415.28
2019-03-10T08:24:42.547Z,100410.28
2019-03-10T08:27:30.787Z,100391.08
2019-03-10T08:30:19.201Z,100390.72
2019-03-10T08:33:08.603Z,100408.39
2019-03-10T08:36:04.653Z,100410.95
2019-03-10T08:38:49.203Z,100409.21
2019-03-10T08:41:42.780Z,100408.98
2019-03-10T08:44:30.192Z,100413.05
2019-03-10T08:47:31.857Z,100409.56
2019-03-10T08:50:25.433Z,100406.54
2019-03-10T08:53:18.285Z,100415.49
2019-03-10T08:56:06.142Z,100402.95
2019-03-10T08:58:55.077Z,100426.45
2019-03-10T09:02:02.785Z,100409.44
2019-03-10T09:04:49.898Z,100404.42
2019-03-10T09:07:38.559Z,100421.69
2019-03-10T09:10:43.599Z,100417.83
2019-03-10T09:13:29.280Z,100427.97
2019-03-10T09:16:16.397Z,100432.64
2019-03-10T09:18:57.687Z,100435.88
2019-03-10T09:21:47.366Z,100430.21
2019-03-10T09:24:37.260Z,100437.84
2019-03-10T09:27:28.405Z,100426.61
2019-03-10T09:30:25.107Z,100425.91
2019-03-10T09:33:14.489Z,100431.70
2019-03-10T09:36:06.825Z,100427.58
2019-03-10T09:39:11.805Z,100436.27
2019-03-10T09:42:10.645Z,100435.25
2019-03-10T09:44:59.014Z,100439.05
2019-03-10T09:48:03.949Z,100416.66
2019-03-10T09:50:54.135Z,100423.06
2019-03-10T09:53:43.816Z,100387.88
2019-03-10T09:56:32.158Z,100458.97
2019-03-10T09:59:12.609Z,100433.45
2019-03-10T10:02:05.186Z,100436.89
2019-03-10T10:05:13.196Z,100435.50
2019-03-10T10:08:09.058Z,100437.34
2019-03-10T10:10:57.597Z,100445.41
2019-03-10T10:13:46.522Z,100442.12
2019-03-10T10:16:27.727Z,100438.38
2019-03-10T10:19:16.164Z,100425.87
2019-03-10T10:22:18.541Z,100436.81
2019-03-10T10:25:09.851Z,100429.15
2019-03-10T10:27:51.748Z,100433.80
2019-03-10T10:31:00.671Z,100435.30
2019-03-10T10:33:50.151Z,100444.25
2019-03-10T10:36:37.369Z,100431.53
2019-03-10T10:39:33.607Z,100417.05
2019-03-10T10:42:22.350Z,100404.08
2019-03-10T10:45:11.009Z,100407.64
2019-03-10T10:48:03.683Z,100388.36
2019-03-10T10:50:53.147Z,100392.98
2019-03-10T10:53:54.617Z,100394.01
2019-03-10T10:56:51.244Z,100388.36
2019-03-10T10:59:39.901Z,100385.70
2019-03-10T11:02:33.479Z,100384.27
2019-03-10T11:05:42.200Z,100384.31
2019-03-10T11:08:37.496Z,100372.25
2019-03-10T11:11:27.169Z,100367.91
2019-03-10T11:14:20.555Z,100353.86
2019-03-10T11:17:08.993Z,100345.56
2019-03-10T11:20:07.284Z,100338.77
2019-03-10T11:22:47.143Z,100331.30
2019-03-10T11:25:32.813Z,100324.51
2019-03-10T11:28:09.075Z,100320.20
2019-03-10T11:30:54.265Z,100318.39
2019-03-10T11:33:31.849Z,100312.94
2019-03-10T11:36:24.292Z,100307.63
2019-03-10T11:39:14.171Z,100302.98
2019-03-10T11:41:53.212Z,100306.45
2019-03-10T11:44:49.647Z,100293.87
2019-03-10T11:47:27.573Z,100306.97
2019-03-10T11:50:10.800Z,100298.34
2019-03-10T11:53:18.275Z,100287.41
2019-03-10T11:56:11.242Z,100296.19
2019-03-10T11:59:00.616Z,100304.15
2019-03-10T12:01:53.253Z,100288.72
2019-03-10T12:04:46.009Z,100297.03
2019-03-10T12:07:35.730Z,100295.35
2019-03-10T12:10:06.793Z,100292.88
2019-03-10T12:12:37.621Z,100279.41
2019-03-10T12:15:09.260Z,100282.39
2019-03-10T12:17:39.989Z,100264.14
2019-03-10T12:20:11.236Z,100290.33
2019-03-10T12:22:43.376Z,100272.09
2019-03-10T12:25:17.584Z,100274.77
2019-03-10T12:27:48.457Z,100265.97
2019-03-10T12:30:19.175Z,100272.42
2019-03-10T12:32:49.800Z,100284.74
2019-03-10T12:35:20.456Z,100272.62
2019-03-10T12:37:51.067Z,100280.58
2019-03-10T12:40:21.779Z,100282.06
2019-03-10T12:42:52.476Z,100284.03
2019-03-10T12:45:23.281Z,100320.86
2019-03-10T12:47:53.907Z,100312.59
2019-03-10T12:50:24.826Z,100291.69
2019-03-10T12:52:57.890Z,100283.09
2019-03-10T12:55:28.561Z,100285.91
2019-03-10T12:58:01.120Z,100280.77
2019-03-10T13:00:33.320Z,100287.75
2019-03-10T13:03:04.115Z,100286.75
2019-03-10T13:05:36.249Z,100283.09
2019-03-10T13:08:08.291Z,100296.86
2019-03-10T13:10:39.007Z,100283.09
2019-03-10T13:13:11.047Z,100287.42
2019-03-10T13:15:41.723Z,100281.42
2019-03-10T13:18:12.434Z,100287.75
2019-03-10T13:20:43.198Z,100286.08
2019-03-10T13:23:14.006Z,100302.34
2019-03-10T13:25:44.667Z,100285.11
2019-03-10T13:28:15.334Z,100284.92
2019-03-10T13:30:46.706Z,100284.08
2019-03-10T13:33:17.968Z,100270.63
2019-03-10T13:35:51.479Z,100267.17
2019-03-10T13:38:22.423Z,100269.33
2019-03-10T13:40:52.987Z,100262.38
2019-03-10T13:43:23.923Z,100261.86
2019-03-10T13:45:54.635Z,100247.29
2019-03-10T13:48:25.429Z,100253.09
2019-03-10T13:50:57.465Z,100244.63
2019-03-10T13:53:30.804Z,100231.69
2019-03-10T13:56:02.202Z,100231.84
2019-03-10T13:58:33.010Z,100230.86
2019-03-10T14:01:05.343Z,100228.70
2019-03-10T14:03:36.077Z,100240.64
2019-03-10T14:06:06.966Z,100231.88
2019-03-10T14:08:37.483Z,100231.38
2019-03-10T14:11:08.093Z,100235.69
2019-03-10T14:13:39.054Z,100235.03
2019-03-10T14:16:09.762Z,100226.91
2019-03-10T14:18:40.706Z,100228.06
2019-03-10T14:21:11.431Z,100244.97
2019-03-10T14:23:43.476Z,100234.03
2019-03-10T14:26:15.528Z,100243.14
2019-03-10T14:28:46.335Z,100240.00
2019-03-10T14:31:17.009Z,100240.83
2019-03-10T14:33:48.612Z,100231.71
2019-03-10T14:36:19.528Z,100224.09
2019-03-10T14:38:51.124Z,100225.07
2019-03-10T14:41:22.088Z,100219.44
2019-03-10T14:43:53.318Z,100226.08
2019-03-10T14:46:24.113Z,100229.06
2019-03-10T14:48:54.794Z,100241.66
2019-03-10T14:51:25.738Z,100240.31
2019-03-10T14:53:56.463Z,100226.91
2019-03-10T14:56:27.446Z,100233.53
2019-03-10T14:58:57.939Z,100231.69
2019-03-10T15:01:29.854Z,100233.37
2019-03-10T15:04:00.975Z,100227.73
2019-03-10T15:06:31.870Z,100219.75
2019-03-10T15:09:02.546Z,100219.77
2019-03-10T15:11:34.422Z,100199.84
2019-03-10T15:14:05.099Z,100216.05
2019-03-10T15:16:35.990Z,100215.58
2019-03-10T15:19:07.257Z,100209.60
2019-03-10T15:21:38.149Z,100214.38
2019-03-10T15:24:08.675Z,100215.38
2019-03-10T15:26:45.664Z,100215.17
2019-03-10T15:29:13.375Z,100217.47
2019-03-10T15:31:44.432Z,100221.61
2019-03-10T15:34:15.339Z,100215.31
2019-03-10T15:36:46.054Z,100216.27
2019-03-10T15:39:16.787Z,100221.85
2019-03-10T15:41:47.400Z,100221.82
2019-03-10T15:44:18.034Z,100218.17
2019-03-10T15:46:48.896Z,100215.66
2019-03-10T15:49:19.735Z,100213.17
2019-03-10T15:51:51.948Z,100212.30
2019-03-10T15:54:23.218Z,100212.45
2019-03-10T15:56:53.930Z,100216.70
2019-03-10T15:59:26.022Z,100216.35
2019-03-10T16:01:56.587Z,100214.66
2019-03-10T16:04:27.195Z,100202.72
2019-03-10T16:06:59.380Z,100211.30
2019-03-10T16:09:30.112Z,100215.70
2019-03-10T16:12:00.834Z,100218.48
2019-03-10T16:14:31.823Z,100216.43
2019-03-10T16:17:02.605Z,100227.27
2019-03-10T16:19:33.232Z,100231.50
2019-03-10T16:22:04.205Z,100225.78
2019-03-10T16:24:34.932Z,100230.20
2019-03-10T16:27:05.888Z,100242.53
2019-03-10T16:29:38.065Z,100240.91
2019-03-10T16:32:09.056Z,100247.55
2019-03-10T16:34:39.801Z,100244.45
2019-03-10T16:37:10.876Z,100248.48
2019-03-10T16:39:41.910Z,100250.06
2019-03-10T16:42:14.303Z,100242.72
2019-03-10T16:44:45.102Z,100250.90
2019-03-10T16:47:15.892Z,100254.06
2019-03-10T16:49:47.149Z,100242.87
2019-03-10T16:52:18.135Z,100241.81
2019-03-10T16:54:48.929Z,100236.91
2019-03-10T16:57:19.973Z,100234.42
2019-03-10T16:59:52.066Z,100245.77
2019-03-10T17:02:22.687Z,100247.63
2019-03-10T17:04:54.154Z,100246.66
2019-03-10T17:07:24.877Z,100244.86
2019-03-10T17:09:55.891Z,100243.22
2019-03-10T17:12:26.645Z,100242.67
2019-03-10T17:14:57.470Z,100243.46
2019-03-10T17:17:28.163Z,100242.29
2019-03-10T17:19:59.160Z,100243.94
2019-03-10T17:22:29.863Z,100243.46
2019-03-10T17:25:00.682Z,100245.81
2019-03-10T17:27:31.391Z,100246.27
2019-03-10T17:30:02.420Z,100249.70
2019-03-10T17:32:34.156Z,100247.95
2019-03-10T17:35:05.668Z,100241.93
2019-03-10T17:37:37.803Z,100246.15
2019-03-10T17:40:12.309Z,100241.16
2019-03-10T17:42:43.232Z,100237.56
2019-03-10T17:45:15.664Z,100237.74
2019-03-10T17:47:46.608Z,100240.64
2019-03-10T17:50:17.421Z,100247.59
2019-03-10T17:52:48.803Z,100240.30
2019-03-10T17:55:19.711Z,100241.99
2019-03-10T17:57:50.320Z,100235.99
2019-03-10T18:00:23.572Z,100242.49
2019-03-10T18:02:55.779Z,100240.19
2019-03-10T18:05:28.004Z,100247.32
2019-03-10T18:07:58.963Z,100238.88
2019-03-10T18:10:29.965Z,100232.27
2019-03-10T18:13:00.931Z,100222.73
2019-03-10T18:15:32.488Z,100206.89
2019-03-10T18:18:03.254Z,100204.17
2019-03-10T18:20:34.212Z,100197.30
2019-03-10T18:23:05.008Z,100195.72
2019-03-10T18:25:36.038Z,100192.02
2019-03-10T18:28:07.095Z,100191.34
2019-03-10T18:30:37.863Z,100196.13
2019-03-10T18:33:08.537Z,100196.73
2019-03-10T18:35:39.304Z,100196.73
2019-03-10T18:38:11.956Z,100181.30
2019-03-10T18:40:42.745Z,100182.72
2019-03-10T18:43:13.215Z,100173.38
2019-03-10T18:45:45.921Z,100166.33
2019-03-10T18:48:17.168Z,100162.13
2019-03-10T18:50:49.004Z,100152.94
2019-03-10T18:53:21.658Z,100153.88
2019-03-10T18:55:52.722Z,100150.36
2019-03-10T18:58:24.613Z,100143.17
2019-03-10T19:00:55.488Z,100138.67
2019-03-10T19:03:29.274Z,100143.32
2019-03-10T19:06:01.248Z,100141.67
2019-03-10T19:08:32.192Z,100132.66
2019-03-10T19:11:03.173Z,100134.63
2019-03-10T19:13:33.987Z,100126.52
2019-03-10T19:16:04.542Z,100114.30
2019-03-10T19:18:35.342Z,100112.51
2019-03-10T19:21:07.848Z,100112.33
2019-03-10T19:23:38.825Z,100105.47
2019-03-10T19:26:11.490Z,100099.36
2019-03-10T19:28:42.671Z,100099.55
2019-03-10T19:31:13.607Z,100132.05
2019-03-10T19:33:44.333Z,100135.42
2019-03-10T19:36:15.007Z,100117.44
2019-03-10T19:38:46.916Z,100108.73
2019-03-10T19:41:17.710Z,100091.39
2019-03-10T19:43:49.880Z,100096.02
2019-03-10T19:46:20.809Z,100083.75
2019-03-10T19:48:51.612Z,100077.56
2019-03-10T19:51:22.436Z,100073.31
2019-03-10T19:53:53.709Z,100071.13
2019-03-10T19:56:24.554Z,100069.59
2019-03-10T19:58:55.537Z,100066.97
2019-03-10T20:01:26.514Z,100053.20
2019-03-10T20:03:57.986Z,100048.71
2019-03-10T20:06:28.821Z,100049.53
2019-03-10T20:09:01.379Z,100048.14
2019-03-10T20:11:32.471Z,100052.05
2019-03-10T20:14:03.283Z,100036.17
2019-03-10T20:16:34.219Z,100039.23
2019-03-10T20:19:07.192Z,100031.21
2019-03-10T20:21:38.314Z,100029.69
2019-03-10T20:24:08.936Z,100026.97
2019-03-10T20:26:39.821Z,100027.48
2019-03-10T20:29:10.414Z,100020.36
2019-03-10T20:31:41.123Z,100010.41
2019-03-10T20:34:12.574Z,100006.47
2019-03-10T20:36:43.238Z,100003.30
2019-03-10T20:39:16.612Z,100003.80
2019-03-10T20:41:47.548Z,100002.43
2019-03-10T20:44:18.317Z,99990.50
2019-03-10T20:46:49.289Z,99992.64
2019-03-10T20:49:21.434Z,99987.94
2019-03-10T20:51:52.148Z,99986.27
2019-03-10T20:54:23.868Z,99986.42
2019-03-10T20:56:54.602Z,99985.87
2019-03-10T20:59:25.397Z,99976.85
2019-03-10T21:01:56.033Z,99968.48
2019-03-10T21:04:26.876Z,99963.66
2019-03-10T21:06:57.721Z,99957.32
2019-03-10T21:09:28.621Z,99957.24
2019-03-10T21:12:00.668Z,99946.09
2019-03-10T21:14:31.413Z,99941.55
2019-03-10T21:17:02.035Z,99945.48
2019-03-10T21:19:32.728Z,99943.35
2019-03-10T21:22:03.875Z,99942.45
2019-03-10T21:24:34.601Z,99940.21
2019-03-10T21:27:05.534Z,99937.06
2019-03-10T21:29:36.451Z,99929.88
2019-03-10T21:32:07.077Z,99930.64
2019-03-10T21:34:38.084Z,99922.81
2019-03-10T21:37:09.050Z,99911.92
2019-03-10T21:39:39.749Z,99913.40
2019-03-10T21:42:10.792Z,99906.83
2019-03-10T21:44:42.120Z,99905.00
2019-03-10T21:47:13.020Z,99898.97
2019-03-10T21:49:44.061Z,99896.92
2019-03-10T21:52:14.746Z,99894.69
2019-03-10T21:54:45.585Z,99892.60
2019-03-10T21:57:16.465Z,99889.39
2019-03-10T21:59:48.350Z,99877.52
2019-03-10T22:02:18.997Z,99875.30
2019-03-10T22:04:49.783Z,99876.71
2019-03-10T22:07:20.863Z,99875.59
2019-03-10T22:09:51.940Z,99868.95
2019-03-10T22:12:22.824Z,99863.00
2019-03-10T22:14:53.701Z,99850.70
2019-03-10T22:17:24.446Z,99844.55
2019-03-10T22:19:55.313Z,99841.52
2019-03-10T22:22:27.295Z,99841.87
2019-03-10T22:24:58.694Z,99841.82
2019-03-10T22:27:29.658Z,99848.66
2019-03-10T22:30:00.572Z,99844.80
2019-03-10T22:32:32.149Z,99835.11
2019-03-10T22:35:02.836Z,99827.08
2019-03-10T22:37:33.644Z,99827.80
2019-03-10T22:40:05.772Z,99832.06
2019-03-10T22:42:38.457Z,99825.78
2019-03-10T22:45:09.856Z,99830.28
2019-03-10T22:47:42.173Z,99820.87
2019-03-10T22:50:13.571Z,99816.27
2019-03-10T22:52:45.704Z,99808.50
2019-03-10T22:55:16.808Z,99812.48
2019-03-10T22:57:49.420Z,99808.45
2019-03-10T23:00:21.065Z,99801.23
2019-03-10T23:02:51.896Z,99809.20
2019-03-10T23:05:23.205Z,99805.17
2019-03-10T23:07:54.306Z,99795.45
2019-03-10T23:10:25.304Z,99801.93
2019-03-10T23:12:56.430Z,99784.39
2019-03-10T23:15:27.300Z,99775.08
2019-03-10T23:17:58.122Z,99784.03
2019-03-10T23:20:29.272Z,99777.94
2019-03-10T23:23:00.544Z,99780.72
2019-03-10T23:25:31.550Z,99774.31
2019-03-10T23:28:03.821Z,99773.58
2019-03-10T23:30:35.904Z,99766.78
2019-03-10T23:33:07.743Z,99773.83
2019-03-10T23:35:38.561Z,99767.25
2019-03-10T23:38:09.724Z,99773.06
2019-03-10T23:40:41.065Z,99770.61
2019-03-10T23:43:12.970Z,99771.77
2019-03-10T23:45:44.005Z,99768.81
2019-03-10T23:48:14.835Z,99770.13
2019-03-10T23:50:45.872Z,99765.20
2019-03-10T23:53:17.773Z,99755.44
2019-03-10T23:55:48.655Z,99744.91
2019-03-10T23:58:19.455Z,99739.80
